Zelienople, PA (16063)

3:10 AM EDT on July 04, 2015 (GMT -0400)
Mueller Hollow-Jackson Twp., Zelienople, PA. | | Change Station
CLOSE
Current Station
Personal Weather Station
Location: Zelienople, PA
Elevation: 1112 ft
Nearby Weather Stations

Elev 1112 ft 40.79 °N, 80.10 °W | Updated 15 seconds ago

Overcast
Overcast
65.5 °F
Feels Like 65.5 °F
N
0.0
Wind Variable Wind from South
Gusts 0.0 mph

Today
High -- | Low -- °F
--% Chance of Precip.
Yesterday
High -- | Low -- °F
Precip. -- in
5:54 AM 8:55 PM
Waning Gibbous, 94% visible
Pressure 29.89 in
Visibility 4.0 miles
Clouds Mostly Cloudy 2500 ft
Mostly Cloudy 12000 ft
Dew Point 65 °F
Humidity 99%
Rainfall 0.00 in
Snow Depth Not available.
UV 0.0 out of 12
Pollen 3.70 out of 12
Air Quality Not available.
Flu Activity Not available.
METAR KBTP 040655Z AUTO 08003KT 4SM BKN025 BKN120 18/17 A2989 RMK AO1

More Conditions Fewer Conditions

Pressure 29.89 in
Visibility 4.0 miles
Clouds Mostly Cloudy 2500 ft
Mostly Cloudy 12000 ft
Dew Point 65 °F
Humidity 99%
Rainfall 0.00 in
Snow Depth Not available.
UV 0.0 out of 12
Pollen 3.70 out of 12
Air Quality Not available.
Flu Activity Not available.
METAR KBTP 040655Z AUTO 08003KT 4SM BKN025 BKN120 18/17 A2989 RMK AO1

More Conditions Fewer Conditions

10-Day Weather Forecast

×

Almanac

Astronomy

Jul. 04, 2015 Rise Set
Actual Time
Civil Twilight
Nautical Twilight
Astronomical Twilight
Moon
Length of Visible Light
Length of Day
Tomorrow will be .
, % of the Moon is Illuminated

Today's Extremes

State Highs State Lows

Community

WunderPhotos

Upload Photos

1,834,926 photos uploaded!

WunderBlogs® & News

Nearby

Air Quality

  Air Quality AQ Index Pollutant
Not available.

Snow Depth

Station Depth Elevation

Earthquake Activity

City Distance Mag. Time & Date
Minimum magnitude displayed is 2.5.

Coastal Water Temperatures

Place Temperature

Stations

Nearby Weather Stations

Station Location Temp. Windchill Dew Point Humidity Wind Precip. Elev Updated Type